ADDS METAR Data INFO
IDs: Format: Raw Decoded Include TAF

Data at: 1210 UTC 24 Feb 2018

EGBB 241150Z 10012KT 9999 FEW022 03/M04 Q1023

EGBJ 241150Z 07008KT 9000 FEW021 04/M03 Q1022

EGVN 241150Z 07016KT 9999 FEW022 02/M01 Q1022 NOSIG

EGTK 241150Z 08015KT 9000 FEW024 02/M02 Q1022

EGWC 241150Z 09015KT 9999 FEW045 03/M05 Q1023 BLU

EGTC 241150Z 08015KT 9999 FEW019 04/M01 Q1022

EGNX 241150Z 09015KT CAVOK 03/M03 Q1024